Time;durP1;ratioP1;P1;durP2;ratioP2;P2;SDS_P1;SDS_P2;PMS_P1;PMS_P2;Temp;Humidity;BMP_temperature;BMP_pressure;BME280_temperature;BME280_humidity;BME280_pressure;Samples;Min_cycle;Max_cycle;Signal;HPM_P1;HPM_P2
2023/06/07 00:00:32;;;;;;;0.40;0.40;;;;;;;15.15;66.42;96948.88;29395;202;63009;-64
2023/06/07 00:01:06;;;;;;;0.40;0.40;;;;;;;15.14;66.64;96947.28;29395;250;63001;-63
2023/06/07 00:01:42;;;;;;;0.40;0.40;;;;;;;15.14;66.60;96941.81;29395;198;63009;-62
2023/06/07 00:02:14;;;;;;;0.50;0.50;;;;;;;15.15;66.62;96948.88;29395;269;63004;-51
2023/06/07 00:02:47;;;;;;;0.50;0.50;;;;;;;15.15;66.48;96948.88;29395;219;63009;-52
2023/06/07 00:03:19;;;;;;;0.40;0.40;;;;;;;15.13;66.79;96945.66;29395;255;63004;-52
2023/06/07 00:03:51;;;;;;;0.50;0.50;;;;;;;15.13;66.74;96953.06;29394;242;64013;-62
2023/06/07 00:04:22;;;;;;;0.43;0.43;;;;;;;15.11;66.55;96947.91;29395;203;63005;-51
2023/06/07 00:04:53;;;;;;;0.40;0.40;;;;;;;15.12;66.77;96946.78;29395;198;63009;-62
2023/06/07 00:05:25;;;;;;;0.50;0.50;;;;;;;15.10;66.55;96946.31;29395;208;63005;-62
2023/06/07 00:06:00;;;;;;;0.50;0.50;;;;;;;15.08;66.81;96946.63;29395;219;63015;-51
2023/06/07 00:06:32;;;;;;;0.50;0.50;;;;;;;15.07;66.85;96947.75;29394;236;64009;-63
2023/06/07 00:07:05;;;;;;;0.50;0.50;;;;;;;15.07;66.89;96949.66;29395;247;63009;-63
2023/06/07 00:07:36;;;;;;;0.50;0.50;;;;;;;15.05;66.98;96941.00;29395;251;63005;-63
2023/06/07 00:08:08;;;;;;;0.50;0.50;;;;;;;15.04;67.07;96945.66;29395;257;63009;-61
2023/06/07 00:08:39;;;;;;;0.50;0.50;;;;;;;15.03;67.08;96946.78;29395;291;63004;-63
2023/06/07 00:09:10;;;;;;;0.50;0.50;;;;;;;15.03;67.38;96946.78;29395;224;63009;-62
2023/06/07 00:09:42;;;;;;;0.40;0.40;;;;;;;15.03;67.20;96940.50;29395;288;63004;-51
2023/06/07 00:10:13;;;;;;;0.40;0.40;;;;;;;15.03;67.30;96945.97;29395;206;63009;-62
2023/06/07 00:10:46;;;;;;;0.50;0.50;;;;;;;15.04;67.41;96947.56;29395;282;63004;-51
2023/06/07 00:11:18;;;;;;;0.50;0.50;;;;;;;15.04;67.22;96939.38;29395;262;63008;-52
2023/06/07 00:11:49;;;;;;;0.40;0.40;;;;;;;15.04;67.42;96942.91;29394;232;64009;-52
2023/06/07 00:12:21;;;;;;;0.50;0.50;;;;;;;15.04;67.32;96937.44;29394;219;64014;-51
2023/06/07 00:12:52;;;;;;;0.50;0.50;;;;;;;15.02;67.35;96938.91;29394;212;64009;-52
2023/06/07 00:13:24;;;;;;;0.50;0.50;;;;;;;15.01;67.30;96945.47;29395;235;63009;-51
2023/06/07 00:13:56;;;;;;;0.50;0.50;;;;;;;15.00;67.66;96938.41;29395;225;63005;-52
2023/06/07 00:14:28;;;;;;;0.50;0.50;;;;;;;14.98;67.78;96941.47;29395;199;63009;-52
2023/06/07 00:15:01;;;;;;;0.50;0.50;;;;;;;14.98;67.75;96937.91;29395;211;63011;-51
2023/06/07 00:15:32;;;;;;;0.50;0.50;;;;;;;14.97;67.90;96936.31;29395;210;63009;-51
2023/06/07 00:16:04;;;;;;;0.50;0.50;;;;;;;14.98;67.99;96943.38;29395;242;63004;-52
2023/06/07 00:16:35;;;;;;;0.50;0.50;;;;;;;14.98;67.91;96937.91;29395;235;63009;-51
2023/06/07 00:17:08;;;;;;;0.62;0.62;;;;;;;14.97;67.86;96937.13;29395;294;63004;-53
2023/06/07 00:17:40;;;;;;;0.50;0.50;;;;;;;14.98;67.95;96941.47;29394;241;64013;-51
2023/06/07 00:18:14;;;;;;;0.40;0.40;;;;;;;14.99;67.91;96939.53;29395;225;63004;-51
2023/06/07 00:18:46;;;;;;;0.50;0.50;;;;;;;14.99;67.90;96945.00;29395;220;63008;-52
2023/06/07 00:19:21;;;;;;;0.40;0.40;;;;;;;14.99;68.01;96939.53;29395;226;63005;-51
2023/06/07 00:19:52;;;;;;;0.40;0.40;;;;;;;14.98;67.97;96938.72;29395;206;63009;-52
2023/06/07 00:20:24;;;;;;;0.50;0.50;;;;;;;14.97;67.87;96941.78;29395;205;63007;-52
2023/06/07 00:20:57;;;;;;;0.50;0.50;;;;;;;14.95;68.23;96944.03;29395;199;63009;-51
2023/06/07 00:21:30;;;;;;;0.95;0.95;;;;;;;14.89;68.39;96945.31;29395;341;63005;-52
2023/06/07 00:22:02;;;;;;;0.50;0.50;;;;;;;14.84;69.26;96950.94;29395;206;63009;-51
2023/06/07 00:22:34;;;;;;;0.50;0.50;;;;;;;14.79;69.08;96948.34;29394;206;64009;-55
2023/06/07 00:23:05;;;;;;;0.50;0.50;;;;;;;14.79;68.94;96945.63;29395;239;63009;-54
2023/06/07 00:23:36;;;;;;;0.50;0.50;;;;;;;14.78;68.51;96938.53;29395;214;63004;-53
2023/06/07 00:24:08;;;;;;;0.50;0.50;;;;;;;14.79;68.64;96938.22;29395;225;63018;-52
2023/06/07 00:24:40;;;;;;;0.40;0.40;;;;;;;14.79;68.18;96937.44;29395;207;63004;-52
2023/06/07 00:25:12;;;;;;;0.50;0.50;;;;;;;14.79;68.29;96949.16;29395;252;63008;-52
2023/06/07 00:25:44;;;;;;;0.40;0.40;;;;;;;14.79;68.34;96945.63;29395;229;63004;-62
2023/06/07 00:26:16;;;;;;;0.50;0.50;;;;;;;14.80;68.22;96941.75;29395;220;63009;-52
2023/06/07 00:26:48;;;;;;;0.50;0.50;;;;;;;14.79;68.24;96943.69;29395;238;63008;-52
2023/06/07 00:27:19;;;;;;;0.50;0.50;;;;;;;14.81;68.31;96943.38;29395;242;63009;-51
2023/06/07 00:27:52;;;;;;;0.40;0.40;;;;;;;14.81;68.47;96949.66;29394;220;64009;-52
2023/06/07 00:28:24;;;;;;;0.50;0.50;;;;;;;14.81;68.10;96938.72;29395;245;63009;-51
2023/06/07 00:28:55;;;;;;;0.50;0.50;;;;;;;14.81;68.05;96943.38;29395;207;63005;-52
2023/06/07 00:29:26;;;;;;;0.50;0.50;;;;;;;14.81;68.12;96937.91;29395;200;63009;-52
2023/06/07 00:29:58;;;;;;;0.50;0.50;;;;;;;14.81;67.91;96946.09;29395;232;63005;-51
2023/06/07 00:30:30;;;;;;;0.50;0.50;;;;;;;14.80;68.36;96947.22;29395;214;63009;-52
2023/06/07 00:31:01;;;;;;;0.50;0.50;;;;;;;14.78;67.87;96949.47;29395;206;63004;-52
2023/06/07 00:31:33;;;;;;;0.50;0.50;;;;;;;14.79;68.01;96951.87;29395;223;63013;-52
2023/06/07 00:32:05;;;;;;;0.50;0.50;;;;;;;14.78;68.09;96944.00;29395;216;63004;-51
2023/06/07 00:32:36;;;;;;;0.50;0.50;;;;;;;14.78;68.32;96942.09;29395;211;63008;-51
2023/06/07 00:33:08;;;;;;;0.40;0.40;;;;;;;14.77;68.29;96942.41;29394;243;64008;-52
2023/06/07 00:33:39;;;;;;;0.50;0.50;;;;;;;14.78;68.40;96949.47;29395;197;63018;-61
2023/06/07 00:34:11;;;;;;;0.50;0.50;;;;;;;14.77;68.16;96939.66;29395;220;63005;-51
2023/06/07 00:34:42;;;;;;;0.50;0.50;;;;;;;14.77;68.36;96945.94;29395;236;63009;-52
2023/06/07 00:35:14;;;;;;;0.50;0.50;;;;;;;14.77;68.23;96947.88;29395;237;63005;-52
2023/06/07 00:35:45;;;;;;;0.50;0.50;;;;;;;14.75;68.02;96946.25;29395;243;63009;-51
2023/06/07 00:36:17;;;;;;;0.50;0.50;;;;;;;14.75;68.33;96940.78;29395;240;63005;-50
2023/06/07 00:36:49;;;;;;;0.50;0.50;;;;;;;14.74;68.34;96941.91;29395;203;63009;-52
2023/06/07 00:37:20;;;;;;;0.50;0.50;;;;;;;14.74;68.23;96939.19;29395;218;63010;-52
2023/06/07 00:37:51;;;;;;;0.47;0.47;;;;;;;14.74;68.46;96944.63;29395;218;63009;-51
2023/06/07 00:38:24;;;;;;;0.50;0.50;;;;;;;14.74;68.25;96938.38;29394;199;64009;-52
2023/06/07 00:38:56;;;;;;;0.50;0.50;;;;;;;14.74;68.43;96943.84;29395;218;63009;-51
2023/06/07 00:39:28;;;;;;;0.50;0.50;;;;;;;14.74;68.21;96941.09;29395;250;63004;-52
2023/06/07 00:39:59;;;;;;;0.50;0.50;;;;;;;14.72;68.46;96941.44;29395;206;63009;-51
2023/06/07 00:41:21;;;;;;;0.40;0.40;;;;;;;14.71;68.56;96939.81;29395;209;63009;-52
2023/06/07 00:41:53;;;;;;;0.50;0.50;;;;;;;14.70;68.24;96943.66;29395;219;63010;-51
2023/06/07 00:42:24;;;;;;;0.50;0.50;;;;;;;14.70;68.42;96938.19;29395;214;63009;-52
2023/06/07 00:42:55;;;;;;;0.50;0.50;;;;;;;14.70;68.35;96942.84;29395;207;63005;-62
2023/06/07 00:43:27;;;;;;;0.50;0.50;;;;;;;14.68;68.28;96945.91;29394;223;64013;-52
2023/06/07 00:43:58;;;;;;;0.50;0.50;;;;;;;14.68;68.51;96942.38;29395;235;63005;-52
2023/06/07 00:44:30;;;;;;;0.50;0.50;;;;;;;14.67;68.71;96941.56;29395;260;63009;-52
2023/06/07 00:45:01;;;;;;;0.50;0.50;;;;;;;14.66;69.07;96939.97;29395;231;63005;-52
2023/06/07 00:45:32;;;;;;;0.40;0.40;;;;;;;14.62;69.39;96941.72;29395;213;63013;-52
2023/06/07 00:46:06;;;;;;;0.50;0.50;;;;;;;14.60;69.31;96938.50;29395;224;63009;-52
2023/06/07 00:46:38;;;;;;;0.50;0.50;;;;;;;14.59;69.14;96941.53;29395;212;63019;-52
2023/06/07 00:47:09;;;;;;;0.50;0.50;;;;;;;14.57;69.13;96933.66;29395;221;63004;-51
2023/06/07 00:47:41;;;;;;;0.50;0.50;;;;;;;14.59;69.02;96936.06;29395;196;63008;-52
2023/06/07 00:48:12;;;;;;;0.50;0.50;;;;;;;14.57;69.11;96941.84;29395;204;63004;-53
2023/06/07 00:48:45;;;;;;;0.50;0.50;;;;;;;14.57;68.91;96941.06;29394;212;64014;-51
2023/06/07 00:49:20;;;;;;;0.50;0.50;;;;;;;14.55;69.08;96935.94;29395;229;63005;-52
2023/06/07 00:49:52;;;;;;;0.47;0.47;;;;;;;14.54;69.24;96934.31;29395;242;63009;-51
2023/06/07 00:50:24;;;;;;;0.50;0.50;;;;;;;14.54;69.22;96934.31;29395;197;63005;-52
2023/06/07 00:50:55;;;;;;;0.50;0.50;;;;;;;14.53;69.09;96943.63;29394;239;64013;-52
2023/06/07 00:51:31;;;;;;;0.50;0.50;;;;;;;14.52;69.43;96935.75;29394;249;64009;-52
2023/06/07 00:52:04;;;;;;;0.50;0.50;;;;;;;14.51;69.47;96940.41;29395;222;63009;-51
2023/06/07 00:52:36;;;;;;;0.50;0.50;;;;;;;14.51;69.47;96937.69;29395;202;63005;-51
2023/06/07 00:53:08;;;;;;;0.50;0.50;;;;;;;14.51;69.33;96951.34;29394;225;64013;-52
2023/06/07 00:53:42;;;;;;;0.50;0.50;;;;;;;14.52;69.46;96936.56;29395;208;63004;-51
2023/06/07 00:54:17;;;;;;;0.50;0.50;;;;;;;14.51;69.69;96934.97;29395;238;63009;-51
2023/06/07 00:54:50;;;;;;;0.50;0.50;;;;;;;14.52;69.48;96939.28;29395;222;63004;-62
2023/06/07 00:55:22;;;;;;;0.50;0.50;;;;;;;14.52;69.87;96942.03;29395;229;63008;-51
2023/06/07 00:55:53;;;;;;;0.50;0.50;;;;;;;14.53;69.98;96937.37;29394;206;64008;-63
2023/06/07 00:56:26;;;;;;;0.50;0.50;;;;;;;14.53;69.64;96940.91;29395;218;63009;-62
2023/06/07 00:57:00;;;;;;;0.50;0.50;;;;;;;14.54;70.02;96938.97;29395;273;63012;-51
2023/06/07 00:57:33;;;;;;;0.50;0.50;;;;;;;14.53;70.04;96943.63;29395;222;63009;-63
2023/06/07 00:58:05;;;;;;;0.50;0.50;;;;;;;14.51;70.08;96940.41;29395;197;63005;-51
2023/06/07 00:58:38;;;;;;;0.50;0.50;;;;;;;14.47;70.71;96933.97;29395;208;63009;-61
2023/06/07 00:59:09;;;;;;;0.50;0.50;;;;;;;14.45;70.16;96940.88;29395;248;63005;-62
2023/06/07 00:59:40;;;;;;;0.50;0.50;;;;;;;14.43;70.33;96938.47;29395;256;63009;-51
2023/06/07 01:00:14;;;;;;;0.50;0.50;;;;;;;14.43;70.45;96938.47;29394;215;64009;-51
2023/06/07 01:00:47;;;;;;;0.50;0.50;;;;;;;14.44;70.47;96939.25;29395;245;63009;-62
2023/06/07 01:01:19;;;;;;;23.23;22.05;;;;;;;14.43;70.48;96938.47;29385;239;65004;-62
2023/06/07 01:01:55;;;;;;;0.47;0.47;;;;;;;14.43;70.25;96941.19;29395;210;63009;-63
2023/06/07 01:02:29;;;;;;;0.50;0.50;;;;;;;14.41;70.53;96936.03;29395;241;63004;-63
2023/06/07 01:03:00;;;;;;;0.50;0.50;;;;;;;14.41;70.54;96938.78;29394;257;64013;-63
2023/06/07 01:03:34;;;;;;;0.50;0.50;;;;;;;14.41;70.43;96941.50;29395;197;63004;-52
2023/06/07 01:04:07;;;;;;;0.50;0.50;;;;;;;14.40;70.30;96944.50;29395;198;63009;-64
2023/06/07 01:04:41;;;;;;;0.50;0.50;;;;;;;14.39;70.64;96942.91;29395;263;63005;-52
2023/06/07 01:05:14;;;;;;;0.50;0.50;;;;;;;14.38;70.54;96938.56;29394;276;64014;-51
2023/06/07 01:05:45;;;;;;;0.50;0.50;;;;;;;14.37;71.38;96940.50;29395;199;63005;-51
2023/06/07 01:06:21;;;;;;;0.50;0.50;;;;;;;14.34;72.28;96940.31;29395;262;63009;-52
2023/06/07 01:06:53;;;;;;;0.50;0.50;;;;;;;14.31;72.10;96936.28;29394;249;64009;-51
2023/06/07 01:07:24;;;;;;;0.50;0.50;;;;;;;14.29;71.81;96935.00;29395;204;63009;-53
2023/06/07 01:07:56;;;;;;;0.50;0.50;;;;;;;14.27;71.68;96938.03;29395;203;63004;-62
2023/06/07 01:08:27;;;;;;;0.50;0.50;;;;;;;14.25;72.31;96936.75;29395;228;63009;-52
2023/06/07 01:08:58;;;;;;;0.50;0.50;;;;;;;14.23;72.24;96939.78;29395;228;63004;-62
2023/06/07 01:09:30;;;;;;;0.47;0.47;;;;;;;14.19;73.49;96938.03;29395;272;63008;-52
2023/06/07 01:10:05;;;;;;;0.50;0.50;;;;;;;14.11;74.11;96936.06;29395;203;63004;-62
2023/06/07 01:10:36;;;;;;;0.50;0.50;;;;;;;14.02;74.30;96942.25;29395;285;63008;-63
2023/06/07 01:11:10;;;;;;;0.50;0.50;;;;;;;13.97;74.64;96936.94;29395;239;63005;-52
2023/06/07 01:11:46;;;;;;;0.50;0.50;;;;;;;13.94;74.60;96937.56;29395;245;63011;-51
2023/06/07 01:12:19;;;;;;;0.50;0.50;;;;;;;13.91;74.89;96935.47;29394;236;64009;-52
2023/06/07 01:12:54;;;;;;;0.50;0.50;;;;;;;13.87;74.93;96937.19;29395;202;63009;-52
2023/06/07 01:13:27;;;;;;;0.50;0.50;;;;;;;13.88;74.52;96938.81;29395;202;63005;-51
2023/06/07 01:13:58;;;;;;;0.50;0.50;;;;;;;13.90;74.08;96942.03;29395;204;63009;-61
2023/06/07 01:14:32;;;;;;;0.50;0.50;;;;;;;13.91;73.78;96940.91;29395;267;63004;-52
2023/06/07 01:15:05;;;;;;;0.50;0.50;;;;;;;13.93;73.68;96935.16;29395;199;63009;-51
2023/06/07 01:15:38;;;;;;;0.50;0.50;;;;;;;13.93;73.88;96935.16;29395;222;63004;-51
2023/06/07 01:16:10;;;;;;;0.50;0.50;;;;;;;13.93;73.67;96933.22;29394;215;64013;-63
2023/06/07 01:16:45;;;;;;;0.50;0.50;;;;;;;13.94;73.73;96937.56;29395;202;63004;-61
2023/06/07 01:17:24;;;;;;;0.50;0.50;;;;;;;13.96;73.18;96934.53;29395;209;63008;-62
2023/06/07 01:17:57;;;;;;;0.50;0.50;;;;;;;13.94;73.84;96937.56;29395;243;63005;-51
2023/06/07 01:18:29;;;;;;;0.50;0.50;;;;;;;13.93;73.44;96935.97;29395;197;63009;-52
2023/06/07 01:19:04;;;;;;;0.50;0.50;;;;;;;13.93;73.45;96935.97;29395;317;63005;-62
2023/06/07 01:19:36;;;;;;;0.50;0.50;;;;;;;13.93;73.43;96941.41;29395;214;63009;-63
2023/06/07 01:20:13;;;;;;;0.50;0.50;;;;;;;13.92;74.10;96944.44;29395;205;63005;-51
2023/06/07 01:20:54;;;;;;;0.50;0.50;;;;;;;13.90;74.44;96935.78;29394;273;64013;-63
2023/06/07 01:21:26;;;;;;;0.50;0.50;;;;;;;13.86;74.26;96935.59;29416;203;64009;-62
2023/06/07 01:22:06;;;;;;;0.50;0.50;;;;;;;13.86;73.86;96932.09;29395;242;63009;-61
2023/06/07 01:22:42;;;;;;;0.50;0.50;;;;;;;13.87;74.07;96931.75;29417;256;63004;-51
2023/06/07 01:23:14;;;;;;;0.50;0.50;;;;;;;13.89;74.13;96932.25;29395;202;63009;-63
2023/06/07 01:23:47;;;;;;;0.50;0.50;;;;;;;13.88;74.08;96933.34;29395;199;63004;-50
2023/06/07 01:24:20;;;;;;;0.50;0.50;;;;;;;13.88;74.09;96933.34;29395;244;63009;-63
2023/06/07 01:24:56;;;;;;;0.50;0.50;;;;;;;13.87;74.94;96939.13;29395;227;63004;-62
2023/06/07 01:25:28;;;;;;;0.50;0.50;;;;;;;13.84;74.81;96937.84;29395;200;63009;-52
2023/06/07 01:26:01;;;;;;;0.50;0.50;;;;;;;13.82;74.43;96934.63;29394;228;64009;-62
2023/06/07 01:26:33;;;;;;;0.50;0.50;;;;;;;13.82;74.32;96934.63;29395;242;63009;-62
2023/06/07 01:27:07;;;;;;;0.50;0.50;;;;;;;13.83;74.61;96930.78;29395;213;63005;-62
2023/06/07 01:27:43;;;;;;;0.50;0.50;;;;;;;13.84;74.13;96932.41;29395;223;63009;-63
2023/06/07 01:28:15;;;;;;;0.50;0.50;;;;;;;13.85;74.10;96938.66;29394;247;64009;-52
2023/06/07 01:28:47;;;;;;;0.50;0.50;;;;;;;13.85;74.04;96935.94;29394;204;64013;-62
2023/06/07 01:29:21;;;;;;;0.50;0.50;;;;;;;13.84;74.30;96937.84;29395;250;63005;-63
2023/06/07 01:29:52;;;;;;;0.50;0.50;;;;;;;13.83;74.72;96930.78;29395;198;63009;-60
2023/06/07 01:30:25;;;;;;;0.50;0.50;;;;;;;13.82;74.99;96934.63;29395;205;63010;-63
2023/06/07 01:30:59;;;;;;;0.50;0.50;;;;;;;13.81;74.12;96937.66;29395;243;63009;-63
2023/06/07 01:31:31;;;;;;;0.50;0.50;;;;;;;13.81;74.39;96933.03;29394;227;64009;-64
2023/06/07 01:32:07;;;;;;;0.50;0.50;;;;;;;13.81;74.33;96933.03;29395;230;63009;-62
2023/06/07 01:32:41;;;;;;;0.50;0.50;;;;;;;13.81;74.16;96927.56;29394;202;64004;-52
2023/06/07 01:33:14;;;;;;;0.50;0.50;;;;;;;13.81;74.94;96933.03;29394;217;64014;-63
2023/06/07 01:33:46;;;;;;;0.50;0.50;;;;;;;13.78;75.29;96928.19;29395;203;63005;-62
2023/06/07 01:34:20;;;;;;;0.50;0.50;;;;;;;13.78;74.73;96927.38;29394;205;64014;-62
2023/06/07 01:34:52;;;;;;;0.50;0.50;;;;;;;13.79;74.93;96929.81;29395;267;63005;-63
2023/06/07 01:35:28;;;;;;;0.50;0.50;;;;;;;13.78;75.54;96928.19;29395;232;63014;-62
2023/06/07 01:36:01;;;;;;;0.50;0.50;;;;;;;13.76;75.39;96930.41;29395;249;63006;-64
2023/06/07 01:36:34;;;;;;;0.50;0.50;;;;;;;13.76;74.75;96930.41;29395;217;63009;-62
2023/06/07 01:37:06;;;;;;;0.50;0.50;;;;;;;13.76;74.88;96924.97;29395;265;63017;-63
2023/06/07 01:37:40;;;;;;;0.50;0.50;;;;;;;13.77;74.70;96925.78;29395;240;63009;-52
2023/06/07 01:38:13;;;;;;;0.50;0.50;;;;;;;13.76;74.54;96924.97;29394;244;64009;-52
2023/06/07 01:38:46;;;;;;;0.50;0.50;;;;;;;13.76;74.56;96930.41;29395;234;63009;-64
2023/06/07 01:39:21;;;;;;;0.50;0.50;;;;;;;13.77;74.90;96932.03;29394;197;64009;-52
2023/06/07 01:39:54;;;;;;;0.50;0.50;;;;;;;13.75;74.66;96928.81;29395;214;63008;-52
2023/06/07 01:40:26;;;;;;;0.50;0.50;;;;;;;13.74;75.06;96927.19;29395;214;63004;-52
2023/06/07 01:40:59;;;;;;;0.50;0.50;;;;;;;13.74;74.64;96932.66;29395;244;63009;-62
2023/06/07 01:41:31;;;;;;;0.50;0.50;;;;;;;13.73;74.93;96928.31;29395;225;63005;-52
2023/06/07 01:42:06;;;;;;;0.50;0.50;;;;;;;13.74;75.12;96924.47;29395;220;63009;-52
2023/06/07 01:42:38;;;;;;;0.50;0.50;;;;;;;13.74;75.58;96925.28;29395;236;63005;-52
2023/06/07 01:43:11;;;;;;;0.50;0.50;;;;;;;13.72;75.67;96926.72;29395;383;63015;-61
2023/06/07 01:43:44;;;;;;;0.50;0.50;;;;;;;13.70;75.55;96923.47;29394;219;64009;-51
2023/06/07 01:44:17;;;;;;;0.50;0.50;;;;;;;13.69;75.37;96927.31;29394;202;64013;-52
2023/06/07 01:44:49;;;;;;;0.50;0.50;;;;;;;13.69;75.44;96927.31;29395;249;63011;-53
2023/06/07 01:45:22;;;;;;;0.50;0.50;;;;;;;13.68;75.67;96929.25;29395;229;63009;-52
2023/06/07 01:45:53;;;;;;;0.50;0.50;;;;;;;13.66;76.91;96926.03;29395;205;63008;-53
2023/06/07 01:46:31;;;;;;;0.50;0.50;;;;;;;13.64;76.67;96930.19;29395;250;63009;-52
2023/06/07 01:47:02;;;;;;;0.50;0.50;;;;;;;13.63;76.89;96925.84;29395;241;63004;-52
2023/06/07 01:47:34;;;;;;;0.50;0.50;;;;;;;13.63;76.05;96931.28;29395;245;63008;-52
2023/06/07 01:48:06;;;;;;;0.50;0.50;;;;;;;13.62;76.07;96929.69;29395;224;63005;-52
2023/06/07 01:48:37;;;;;;;0.50;0.50;;;;;;;13.61;76.37;96928.06;29394;203;64014;-52
2023/06/07 01:49:08;;;;;;;0.50;0.50;;;;;;;13.60;76.00;96927.25;29395;266;63005;-52
2023/06/07 01:49:40;;;;;;;0.50;0.50;;;;;;;13.60;75.84;96921.81;29395;202;63009;-52
2023/06/07 01:50:11;;;;;;;0.50;0.50;;;;;;;13.62;75.82;96926.97;29395;238;63005;-52
2023/06/07 01:50:42;;;;;;;0.50;0.50;;;;;;;13.61;75.92;96922.63;29395;210;63009;-53
2023/06/07 01:51:14;;;;;;;0.50;0.50;;;;;;;13.61;76.43;96928.06;29395;222;63005;-52
2023/06/07 01:51:45;;;;;;;0.50;0.50;;;;;;;13.59;76.62;96919.41;29395;235;63009;-52
2023/06/07 01:52:16;;;;;;;0.50;0.50;;;;;;;13.57;76.43;96916.97;29395;202;63004;-51
2023/06/07 01:52:48;;;;;;;0.50;0.50;;;;;;;13.57;76.25;96921.63;29395;256;63009;-51
2023/06/07 01:53:19;;;;;;;0.50;0.50;;;;;;;13.57;76.57;96921.63;29395;243;63004;-52
2023/06/07 01:53:51;;;;;;;0.50;0.50;;;;;;;13.56;76.23;96925.47;29394;197;64013;-52
2023/06/07 01:54:24;;;;;;;0.50;0.50;;;;;;;13.56;76.34;96925.47;29395;231;63004;-52
2023/06/07 01:54:56;;;;;;;0.50;0.50;;;;;;;13.55;76.39;96921.13;29395;247;63016;-52
2023/06/07 01:55:28;;;;;;;0.50;0.50;;;;;;;13.54;76.61;96924.97;29395;251;63004;-52
2023/06/07 01:56:17;;;;;;;0.50;0.50;;;;;;;13.52;76.08;96924.47;29395;225;63009;-52
2023/06/07 01:57:15;;;;;;;0.50;0.50;;;;;;;13.51;76.40;96917.44;29395;257;63005;-53
2023/06/07 01:58:11;;;;;;;0.50;0.50;;;;;;;13.50;76.06;96921.28;29395;274;63009;-53
2023/06/07 01:59:21;;;;;;;0.50;0.50;;;;;;;13.50;76.34;96921.28;29394;197;64009;-62
2023/06/07 02:00:09;;;;;;;0.50;0.50;;;;;;;13.49;77.41;96920.47;29395;356;63016;-52
2023/06/07 02:01:02;;;;;;;0.50;0.50;;;;;;;13.47;76.86;96916.44;29395;372;63004;-51
2023/06/07 02:02:03;;;;;;;0.50;0.50;;;;;;;13.47;76.69;96916.44;29395;237;63022;-52
2023/06/07 02:02:49;;;;;;;0.50;0.50;;;;;;;13.46;77.12;96917.56;29394;309;64009;-52
2023/06/07 02:03:30;;;;;;;0.50;0.50;;;;;;;13.46;77.42;96920.28;29395;553;63009;-52
2023/06/07 02:04:05;;;;;;;0.50;0.50;;;;;;;13.45;77.21;96919.47;29417;241;63005;-52
2023/06/07 02:04:46;;;;;;;0.50;0.50;;;;;;;13.44;76.60;96915.16;29394;245;64013;-52
2023/06/07 02:05:22;;;;;;;0.50;0.50;;;;;;;13.45;77.22;96918.69;29395;199;63005;-52
2023/06/07 02:06:01;;;;;;;0.50;0.50;;;;;;;13.43;76.83;96910.81;29395;197;63009;-52
2023/06/07 02:06:36;;;;;;;0.50;0.50;;;;;;;13.43;76.83;96910.00;29395;201;63004;-52
2023/06/07 02:07:12;;;;;;;0.50;0.50;;;;;;;13.43;76.91;96910.00;29395;287;63009;-53
2023/06/07 02:07:53;;;;;;;0.50;0.50;;;;;;;13.42;77.66;96917.38;29395;535;63004;-52
2023/06/07 02:08:33;;;;;;;0.50;0.50;;;;;;;13.39;77.04;96916.06;29416;197;64013;-52
2023/06/07 02:09:09;;;;;;;0.50;0.50;;;;;;;13.39;77.00;96916.06;29395;370;63004;-52
2023/06/07 02:09:44;;;;;;;0.50;0.50;;;;;;;13.39;77.12;96916.06;29395;321;63008;-53
2023/06/07 02:10:19;;;;;;;0.50;0.50;;;;;;;13.40;77.24;96916.88;29395;227;63005;-52
2023/06/07 02:10:52;;;;;;;0.50;0.50;;;;;;;13.39;77.17;96915.28;29395;259;63009;-52
2023/06/07 02:11:25;;;;;;;0.50;0.50;;;;;;;13.38;77.34;96911.75;29394;225;64009;-52
2023/06/07 02:11:58;;;;;;;0.50;0.50;;;;;;;13.36;77.36;96911.25;29395;204;63022;-52
2023/06/07 02:12:33;;;;;;;0.50;0.50;;;;;;;13.38;77.14;96917.19;29395;281;63005;-52
2023/06/07 02:13:06;;;;;;;0.50;0.50;;;;;;;13.38;77.37;96913.66;29395;359;63009;-52
2023/06/07 02:13:42;;;;;;;0.50;0.50;;;;;;;13.38;77.29;96914.47;29394;283;64009;-62
2023/06/07 02:14:14;;;;;;;0.50;0.50;;;;;;;13.37;77.21;96912.84;29395;222;63009;-52
2023/06/07 02:14:46;;;;;;;0.50;0.50;;;;;;;13.37;77.42;96912.84;29394;192;64009;-52
2023/06/07 02:15:17;;;;;;;0.50;0.50;;;;;;;13.36;77.17;96911.25;29395;203;63009;-52
2023/06/07 02:15:49;;;;;;;0.50;0.50;;;;;;;13.36;77.42;96911.25;29395;253;63004;-62
2023/06/07 02:16:35;;;;;;;0.50;0.50;;;;;;;13.37;77.55;96915.56;29394;207;64013;-52
2023/06/07 02:17:07;;;;;;;0.50;0.50;;;;;;;13.37;77.40;96915.56;29395;203;63004;-52
2023/06/07 02:17:58;;;;;;;0.50;0.50;;;;;;;13.36;77.54;96916.69;29394;203;64014;-52
2023/06/07 02:18:30;;;;;;;0.50;0.50;;;;;;;13.36;77.53;96910.44;29395;265;63005;-52
2023/06/07 02:19:09;;;;;;;0.50;0.50;;;;;;;13.36;77.38;96916.69;29394;258;64014;-52
2023/06/07 02:19:43;;;;;;;0.50;0.50;;;;;;;13.34;77.64;96910.75;29395;202;63018;-52
2023/06/07 02:20:15;;;;;;;0.50;0.50;;;;;;;13.34;77.40;96913.47;29395;496;63009;-52
2023/06/07 02:20:49;;;;;;;0.50;0.50;;;;;;;13.33;77.70;96911.84;29395;245;63005;-52
2023/06/07 02:21:20;;;;;;;0.50;0.50;;;;;;;13.34;77.50;96912.66;29395;338;63009;-53
2023/06/07 02:21:52;;;;;;;0.50;0.50;;;;;;;13.33;77.43;96911.84;29395;291;63004;-53
2023/06/07 02:22:23;;;;;;;0.50;0.50;;;;;;;13.34;77.52;96907.22;29395;231;63009;-51
2023/06/07 02:22:56;;;;;;;0.50;0.50;;;;;;;13.33;77.82;96911.84;29394;242;64000;-52
2023/06/07 02:23:29;;;;;;;0.50;0.50;;;;;;;13.32;77.28;96910.25;29395;265;63009;-52
2023/06/07 02:24:00;;;;;;;0.50;0.50;;;;;;;13.32;77.49;96907.53;29395;277;63015;-52
2023/06/07 02:24:32;;;;;;;0.50;0.50;;;;;;;13.33;77.57;96905.59;29395;204;63008;-52
2023/06/07 02:25:05;;;;;;;0.50;0.50;;;;;;;13.32;77.51;96907.53;29395;245;63012;-52
2023/06/07 02:25:36;;;;;;;0.50;0.50;;;;;;;13.32;77.63;96907.53;29395;284;63009;-52
2023/06/07 02:26:07;;;;;;;0.43;0.43;;;;;;;13.32;77.52;96907.53;29395;236;63005;-52
2023/06/07 02:26:38;;;;;;;0.50;0.50;;;;;;;13.33;77.62;96911.06;29395;262;63009;-52
2023/06/07 02:27:10;;;;;;;0.50;0.50;;;;;;;13.33;77.69;96905.59;29395;208;63005;-54
2023/06/07 02:27:41;;;;;;;0.50;0.50;;;;;;;13.33;77.68;96917.31;29395;245;63009;-53
2023/06/07 02:28:13;;;;;;;0.50;0.50;;;;;;;13.33;77.78;96909.13;29394;211;64009;-52
2023/06/07 02:28:44;;;;;;;0.50;0.50;;;;;;;13.32;77.67;96910.25;29394;240;64013;-54
2023/06/07 02:29:16;;;;;;;0.50;0.50;;;;;;;13.31;77.87;96914.09;29394;222;64009;-52
2023/06/07 02:29:47;;;;;;;0.50;0.50;;;;;;;13.31;77.52;96910.56;29395;184;63009;-52
2023/06/07 02:30:19;;;;;;;0.50;0.50;;;;;;;13.31;77.77;96905.91;29394;202;64009;-51
2023/06/07 02:30:51;;;;;;;0.50;0.50;;;;;;;13.31;77.74;96914.09;29395;368;63009;-53
2023/06/07 02:31:22;;;;;;;0.50;0.50;;;;;;;13.32;77.68;96910.25;29395;212;63004;-52
2023/06/07 02:31:57;;;;;;;0.50;0.50;;;;;;;13.32;77.93;96915.69;29395;223;63008;-52
2023/06/07 02:32:33;;;;;;;0.50;0.50;;;;;;;13.30;77.97;96907.03;29395;270;63005;-52
2023/06/07 02:33:13;;;;;;;0.50;0.50;;;;;;;13.31;77.78;96914.09;29395;247;63009;-52
2023/06/07 02:33:44;;;;;;;0.50;0.50;;;;;;;13.30;77.67;96917.94;29439;334;63005;-52
2023/06/07 02:34:16;;;;;;;0.50;0.50;;;;;;;13.30;77.61;96912.47;29373;205;63009;-52
2023/06/07 02:34:47;;;;;;;0.50;0.50;;;;;;;13.29;77.77;96910.88;29394;445;64009;-52
2023/06/07 02:35:19;;;;;;;0.50;0.50;;;;;;;13.29;77.67;96905.41;29395;317;63009;-52
2023/06/07 02:35:51;;;;;;;0.50;0.50;;;;;;;13.29;77.86;96908.13;29394;396;64009;-53
2023/06/07 02:36:25;;;;;;;0.50;0.50;;;;;;;13.28;77.92;96911.97;29395;297;63009;-52
2023/06/07 02:36:57;;;;;;;0.50;0.50;;;;;;;13.27;77.80;96907.66;29395;198;63004;-52
2023/06/07 02:37:28;;;;;;;0.50;0.50;;;;;;;13.26;77.81;96911.47;29395;235;63024;-52
2023/06/07 02:38:00;;;;;;;0.50;0.50;;;;;;;13.27;77.86;96912.28;29395;203;63004;-52
2023/06/07 02:38:31;;;;;;;0.50;0.50;;;;;;;13.26;78.06;96906.03;29395;315;63009;-51
2023/06/07 02:39:03;;;;;;;0.50;0.50;;;;;;;13.24;78.36;96905.53;29395;253;63004;-52
2023/06/07 02:39:34;;;;;;;0.50;0.50;;;;;;;13.23;77.90;96912.09;29395;331;63008;-51
2023/06/07 02:40:08;;;;;;;0.40;0.40;;;;;;;13.21;78.38;96908.88;29395;213;63005;-52
2023/06/07 02:40:40;;;;;;;0.50;0.50;;;;;;;13.19;78.21;96911.09;29394;204;64014;-52